sensor_id;sensor_type;location;lat;lon;timestamp;temperature;humidity
12839;DHT22;6486;51.034;5.262;2022-08-03T00:01:21;23.90;58.80
12839;DHT22;6486;51.034;5.262;2022-08-03T00:03:47;23.90;58.90
12839;DHT22;6486;51.034;5.262;2022-08-03T00:06:12;23.80;59.10
12839;DHT22;6486;51.034;5.262;2022-08-03T00:08:38;23.80;59.20
12839;DHT22;6486;51.034;5.262;2022-08-03T00:11:03;23.80;59.20
12839;DHT22;6486;51.034;5.262;2022-08-03T00:13:31;23.80;59.30
12839;DHT22;6486;51.034;5.262;2022-08-03T00:15:57;23.80;59.50
12839;DHT22;6486;51.034;5.262;2022-08-03T00:18:22;23.70;59.40
12839;DHT22;6486;51.034;5.262;2022-08-03T00:20:48;23.70;59.50
12839;DHT22;6486;51.034;5.262;2022-08-03T00:23:14;23.70;59.60
12839;DHT22;6486;51.034;5.262;2022-08-03T00:25:40;23.70;59.70
12839;DHT22;6486;51.034;5.262;2022-08-03T00:28:05;23.60;60.30
12839;DHT22;6486;51.034;5.262;2022-08-03T00:30:31;23.60;59.80
12839;DHT22;6486;51.034;5.262;2022-08-03T00:32:57;23.50;60.60
12839;DHT22;6486;51.034;5.262;2022-08-03T00:35:24;23.50;60.00
12839;DHT22;6486;51.034;5.262;2022-08-03T00:37:50;23.50;60.30
12839;DHT22;6486;51.034;5.262;2022-08-03T00:40:17;23.30;60.50
12839;DHT22;6486;51.034;5.262;2022-08-03T00:42:57;23.30;60.70
12839;DHT22;6486;51.034;5.262;2022-08-03T00:45:25;23.30;61.00
12839;DHT22;6486;51.034;5.262;2022-08-03T00:47:52;23.20;60.90
12839;DHT22;6486;51.034;5.262;2022-08-03T00:50:19;23.20;61.00
12839;DHT22;6486;51.034;5.262;2022-08-03T00:52:46;23.20;61.00
12839;DHT22;6486;51.034;5.262;2022-08-03T00:55:11;23.20;61.20
12839;DHT22;6486;51.034;5.262;2022-08-03T00:57:38;23.10;61.10
12839;DHT22;6486;51.034;5.262;2022-08-03T01:00:05;23.10;61.20
12839;DHT22;6486;51.034;5.262;2022-08-03T01:02:32;23.10;61.20
12839;DHT22;6486;51.034;5.262;2022-08-03T01:04:57;23.10;61.20
12839;DHT22;6486;51.034;5.262;2022-08-03T01:07:29;23.10;61.30
12839;DHT22;6486;51.034;5.262;2022-08-03T01:18:33;23.00;61.70
12839;DHT22;6486;51.034;5.262;2022-08-03T01:21:06;22.90;61.70
12839;DHT22;6486;51.034;5.262;2022-08-03T01:26:39;22.90;62.20
12839;DHT22;6486;51.034;5.262;2022-08-03T01:32:34;22.80;62.50
12839;DHT22;6486;51.034;5.262;2022-08-03T01:35:05;22.70;62.40
12839;DHT22;6486;51.034;5.262;2022-08-03T01:37:41;22.70;62.60
12839;DHT22;6486;51.034;5.262;2022-08-03T01:40:09;22.70;62.60
12839;DHT22;6486;51.034;5.262;2022-08-03T01:42:37;22.60;62.60
12839;DHT22;6486;51.034;5.262;2022-08-03T01:45:05;22.60;62.80
12839;DHT22;6486;51.034;5.262;2022-08-03T01:47:32;22.60;62.80
12839;DHT22;6486;51.034;5.262;2022-08-03T01:50:00;22.50;62.80
12839;DHT22;6486;51.034;5.262;2022-08-03T01:52:27;22.50;62.80
12839;DHT22;6486;51.034;5.262;2022-08-03T01:54:54;22.50;62.90
12839;DHT22;6486;51.034;5.262;2022-08-03T01:57:21;22.50;63.00
12839;DHT22;6486;51.034;5.262;2022-08-03T01:59:49;22.40;63.00
12839;DHT22;6486;51.034;5.262;2022-08-03T02:02:16;22.40;63.00
12839;DHT22;6486;51.034;5.262;2022-08-03T02:04:44;22.40;63.10
12839;DHT22;6486;51.034;5.262;2022-08-03T02:07:11;22.40;63.20
12839;DHT22;6486;51.034;5.262;2022-08-03T02:09:40;22.40;63.30
12839;DHT22;6486;51.034;5.262;2022-08-03T02:12:10;22.40;63.30
12839;DHT22;6486;51.034;5.262;2022-08-03T02:14:38;22.40;63.40
12839;DHT22;6486;51.034;5.262;2022-08-03T02:17:06;22.30;63.40
12839;DHT22;6486;51.034;5.262;2022-08-03T02:19:32;22.30;63.60
12839;DHT22;6486;51.034;5.262;2022-08-03T02:21:59;22.30;63.80
12839;DHT22;6486;51.034;5.262;2022-08-03T02:24:25;22.30;63.80
12839;DHT22;6486;51.034;5.262;2022-08-03T02:26:54;22.30;64.00
12839;DHT22;6486;51.034;5.262;2022-08-03T02:29:23;22.30;64.00
12839;DHT22;6486;51.034;5.262;2022-08-03T02:31:50;22.30;64.10
12839;DHT22;6486;51.034;5.262;2022-08-03T02:34:18;22.20;64.10
12839;DHT22;6486;51.034;5.262;2022-08-03T02:36:48;22.20;64.30
12839;DHT22;6486;51.034;5.262;2022-08-03T02:39:18;22.20;64.50
12839;DHT22;6486;51.034;5.262;2022-08-03T02:41:49;22.20;64.60
12839;DHT22;6486;51.034;5.262;2022-08-03T02:44:17;22.20;64.60
12839;DHT22;6486;51.034;5.262;2022-08-03T02:46:46;22.20;64.50
12839;DHT22;6486;51.034;5.262;2022-08-03T02:49:15;22.20;64.50
12839;DHT22;6486;51.034;5.262;2022-08-03T02:51:44;22.20;64.60
12839;DHT22;6486;51.034;5.262;2022-08-03T02:54:15;22.20;64.70
12839;DHT22;6486;51.034;5.262;2022-08-03T02:56:42;22.20;64.70
12839;DHT22;6486;51.034;5.262;2022-08-03T02:59:09;22.10;65.30
12839;DHT22;6486;51.034;5.262;2022-08-03T03:01:37;22.10;64.60
12839;DHT22;6486;51.034;5.262;2022-08-03T03:04:04;22.10;64.70
12839;DHT22;6486;51.034;5.262;2022-08-03T03:06:30;22.10;64.90
12839;DHT22;6486;51.034;5.262;2022-08-03T03:08:57;22.10;65.10
12839;DHT22;6486;51.034;5.262;2022-08-03T03:11:24;22.10;65.20
12839;DHT22;6486;51.034;5.262;2022-08-03T03:13:51;22.10;65.30
12839;DHT22;6486;51.034;5.262;2022-08-03T03:16:18;22.10;65.40
12839;DHT22;6486;51.034;5.262;2022-08-03T03:18:45;22.10;65.40
12839;DHT22;6486;51.034;5.262;2022-08-03T03:21:15;22.10;65.50
12839;DHT22;6486;51.034;5.262;2022-08-03T03:23:41;22.10;65.60
12839;DHT22;6486;51.034;5.262;2022-08-03T03:26:07;22.10;65.60
12839;DHT22;6486;51.034;5.262;2022-08-03T03:28:34;22.10;65.60
12839;DHT22;6486;51.034;5.262;2022-08-03T03:31:02;22.10;65.60
12839;DHT22;6486;51.034;5.262;2022-08-03T03:33:28;22.10;65.60
12839;DHT22;6486;51.034;5.262;2022-08-03T03:35:54;22.00;65.50
12839;DHT22;6486;51.034;5.262;2022-08-03T03:38:22;22.00;65.60
12839;DHT22;6486;51.034;5.262;2022-08-03T03:40:47;22.00;65.60
12839;DHT22;6486;51.034;5.262;2022-08-03T03:43:13;22.00;65.70
12839;DHT22;6486;51.034;5.262;2022-08-03T03:45:40;21.90;65.60
12839;DHT22;6486;51.034;5.262;2022-08-03T03:48:06;21.90;65.70
12839;DHT22;6486;51.034;5.262;2022-08-03T03:50:33;21.90;65.60
12839;DHT22;6486;51.034;5.262;2022-08-03T03:53:00;21.90;65.70
12839;DHT22;6486;51.034;5.262;2022-08-03T03:55:26;21.80;65.80
12839;DHT22;6486;51.034;5.262;2022-08-03T03:57:52;21.80;65.80
12839;DHT22;6486;51.034;5.262;2022-08-03T04:00:18;21.80;65.70
12839;DHT22;6486;51.034;5.262;2022-08-03T04:02:44;21.70;65.70
12839;DHT22;6486;51.034;5.262;2022-08-03T04:05:10;21.70;66.40
12839;DHT22;6486;51.034;5.262;2022-08-03T04:08:00;21.60;65.90
12839;DHT22;6486;51.034;5.262;2022-08-03T04:13:49;21.60;66.00
12839;DHT22;6486;51.034;5.262;2022-08-03T04:16:19;21.50;65.90
12839;DHT22;6486;51.034;5.262;2022-08-03T04:18:54;21.50;66.00
12839;DHT22;6486;51.034;5.262;2022-08-03T04:21:23;21.50;66.00
12839;DHT22;6486;51.034;5.262;2022-08-03T04:23:52;21.40;66.00
12839;DHT22;6486;51.034;5.262;2022-08-03T04:26:21;21.40;66.00
12839;DHT22;6486;51.034;5.262;2022-08-03T04:28:47;21.40;66.00
12839;DHT22;6486;51.034;5.262;2022-08-03T04:31:16;21.40;66.00
12839;DHT22;6486;51.034;5.262;2022-08-03T04:33:43;21.40;66.10
12839;DHT22;6486;51.034;5.262;2022-08-03T04:36:13;21.40;66.10
12839;DHT22;6486;51.034;5.262;2022-08-03T04:38:52;21.30;66.20
12839;DHT22;6486;51.034;5.262;2022-08-03T04:41:20;21.30;66.30
12839;DHT22;6486;51.034;5.262;2022-08-03T04:43:48;21.30;66.30
12839;DHT22;6486;51.034;5.262;2022-08-03T04:46:15;21.20;66.30
12839;DHT22;6486;51.034;5.262;2022-08-03T04:48:42;21.30;66.40
12839;DHT22;6486;51.034;5.262;2022-08-03T04:51:08;21.30;66.40
12839;DHT22;6486;51.034;5.262;2022-08-03T04:53:36;21.20;66.40
12839;DHT22;6486;51.034;5.262;2022-08-03T04:56:05;21.20;66.40
12839;DHT22;6486;51.034;5.262;2022-08-03T04:58:31;21.20;66.50
12839;DHT22;6486;51.034;5.262;2022-08-03T05:00:57;21.20;66.50
12839;DHT22;6486;51.034;5.262;2022-08-03T05:03:22;21.20;66.50
12839;DHT22;6486;51.034;5.262;2022-08-03T05:05:49;21.30;66.60
12839;DHT22;6486;51.034;5.262;2022-08-03T05:08:14;21.30;66.60
12839;DHT22;6486;51.034;5.262;2022-08-03T05:10:40;21.30;66.70
12839;DHT22;6486;51.034;5.262;2022-08-03T05:13:06;21.30;66.60
12839;DHT22;6486;51.034;5.262;2022-08-03T05:15:36;21.20;66.60
12839;DHT22;6486;51.034;5.262;2022-08-03T05:18:02;21.30;66.80
12839;DHT22;6486;51.034;5.262;2022-08-03T05:20:27;21.20;66.70
12839;DHT22;6486;51.034;5.262;2022-08-03T05:22:53;21.30;66.90
12839;DHT22;6486;51.034;5.262;2022-08-03T05:25:19;21.30;66.90
12839;DHT22;6486;51.034;5.262;2022-08-03T05:27:45;21.30;67.00
12839;DHT22;6486;51.034;5.262;2022-08-03T05:30:11;21.30;67.10
12839;DHT22;6486;51.034;5.262;2022-08-03T05:32:36;21.40;67.10
12839;DHT22;6486;51.034;5.262;2022-08-03T05:35:02;21.40;67.10
12839;DHT22;6486;51.034;5.262;2022-08-03T05:37:28;21.50;67.10
12839;DHT22;6486;51.034;5.262;2022-08-03T05:39:54;21.50;67.10
12839;DHT22;6486;51.034;5.262;2022-08-03T05:42:19;21.50;67.60
12839;DHT22;6486;51.034;5.262;2022-08-03T05:44:45;21.50;67.20
12839;DHT22;6486;51.034;5.262;2022-08-03T05:47:11;21.60;67.40
12839;DHT22;6486;51.034;5.262;2022-08-03T05:49:36;21.70;67.40
12839;DHT22;6486;51.034;5.262;2022-08-03T05:52:02;21.70;67.40
12839;DHT22;6486;51.034;5.262;2022-08-03T05:54:28;21.80;67.30
12839;DHT22;6486;51.034;5.262;2022-08-03T05:56:53;21.90;67.30
12839;DHT22;6486;51.034;5.262;2022-08-03T05:59:19;22.00;67.20
12839;DHT22;6486;51.034;5.262;2022-08-03T06:01:46;22.10;67.10
12839;DHT22;6486;51.034;5.262;2022-08-03T06:04:12;22.20;67.00
12839;DHT22;6486;51.034;5.262;2022-08-03T06:06:37;22.30;67.00
12839;DHT22;6486;51.034;5.262;2022-08-03T06:09:03;22.40;66.90
12839;DHT22;6486;51.034;5.262;2022-08-03T06:11:29;22.50;66.70
12839;DHT22;6486;51.034;5.262;2022-08-03T06:13:54;22.60;66.50
12839;DHT22;6486;51.034;5.262;2022-08-03T06:16:20;22.80;66.40
12839;DHT22;6486;51.034;5.262;2022-08-03T06:18:46;22.90;66.30
12839;DHT22;6486;51.034;5.262;2022-08-03T06:21:11;22.90;66.10
12839;DHT22;6486;51.034;5.262;2022-08-03T06:23:37;22.90;66.10
12839;DHT22;6486;51.034;5.262;2022-08-03T06:26:03;23.00;66.00
12839;DHT22;6486;51.034;5.262;2022-08-03T06:28:29;23.10;66.50
12839;DHT22;6486;51.034;5.262;2022-08-03T06:30:54;23.20;65.70
12839;DHT22;6486;51.034;5.262;2022-08-03T06:33:20;23.30;65.50
12839;DHT22;6486;51.034;5.262;2022-08-03T06:35:46;23.50;65.30
12839;DHT22;6486;51.034;5.262;2022-08-03T06:38:11;23.60;65.10
12839;DHT22;6486;51.034;5.262;2022-08-03T06:40:37;23.60;64.80
12839;DHT22;6486;51.034;5.262;2022-08-03T06:43:06;23.70;64.70
12839;DHT22;6486;51.034;5.262;2022-08-03T06:45:33;23.80;64.70
12839;DHT22;6486;51.034;5.262;2022-08-03T06:48:10;23.90;64.50
12839;DHT22;6486;51.034;5.262;2022-08-03T06:50:38;24.00;64.30
12839;DHT22;6486;51.034;5.262;2022-08-03T06:53:04;24.00;64.00
12839;DHT22;6486;51.034;5.262;2022-08-03T06:55:30;24.20;64.10
12839;DHT22;6486;51.034;5.262;2022-08-03T06:57:57;24.30;63.90
12839;DHT22;6486;51.034;5.262;2022-08-03T07:00:23;24.40;63.70
12839;DHT22;6486;51.034;5.262;2022-08-03T07:02:49;24.50;63.50
12839;DHT22;6486;51.034;5.262;2022-08-03T07:05:15;24.60;63.30
12839;DHT22;6486;51.034;5.262;2022-08-03T07:07:41;24.70;63.20
12839;DHT22;6486;51.034;5.262;2022-08-03T07:10:07;24.80;63.00
12839;DHT22;6486;51.034;5.262;2022-08-03T07:12:33;24.90;62.60
12839;DHT22;6486;51.034;5.262;2022-08-03T07:15:00;25.00;62.40
12839;DHT22;6486;51.034;5.262;2022-08-03T07:17:27;25.20;62.20
12839;DHT22;6486;51.034;5.262;2022-08-03T07:19:52;25.20;61.80
12839;DHT22;6486;51.034;5.262;2022-08-03T07:22:18;25.40;61.30
12839;DHT22;6486;51.034;5.262;2022-08-03T07:24:44;25.50;61.20
12839;DHT22;6486;51.034;5.262;2022-08-03T07:27:10;25.60;60.90
12839;DHT22;6486;51.034;5.262;2022-08-03T07:29:36;25.80;60.80
12839;DHT22;6486;51.034;5.262;2022-08-03T07:32:03;25.90;60.40
12839;DHT22;6486;51.034;5.262;2022-08-03T07:34:29;26.10;60.00
12839;DHT22;6486;51.034;5.262;2022-08-03T07:36:55;26.20;59.60
12839;DHT22;6486;51.034;5.262;2022-08-03T07:39:21;26.30;59.30
12839;DHT22;6486;51.034;5.262;2022-08-03T07:41:47;26.40;59.10
12839;DHT22;6486;51.034;5.262;2022-08-03T07:44:14;26.50;58.80
12839;DHT22;6486;51.034;5.262;2022-08-03T07:46:40;26.60;58.60
12839;DHT22;6486;51.034;5.262;2022-08-03T07:49:06;26.80;58.60
12839;DHT22;6486;51.034;5.262;2022-08-03T07:51:31;26.80;58.00
12839;DHT22;6486;51.034;5.262;2022-08-03T07:53:57;26.90;57.90
12839;DHT22;6486;51.034;5.262;2022-08-03T07:56:25;27.00;57.60
12839;DHT22;6486;51.034;5.262;2022-08-03T07:58:51;27.10;57.10
12839;DHT22;6486;51.034;5.262;2022-08-03T08:01:18;27.20;56.80
12839;DHT22;6486;51.034;5.262;2022-08-03T08:03:47;27.30;56.70
12839;DHT22;6486;51.034;5.262;2022-08-03T08:06:13;27.50;56.40
12839;DHT22;6486;51.034;5.262;2022-08-03T08:08:39;27.60;56.10
12839;DHT22;6486;51.034;5.262;2022-08-03T08:11:05;27.70;55.70
12839;DHT22;6486;51.034;5.262;2022-08-03T08:13:31;27.80;55.40
12839;DHT22;6486;51.034;5.262;2022-08-03T08:15:57;28.00;55.20
12839;DHT22;6486;51.034;5.262;2022-08-03T08:18:23;28.10;54.70
12839;DHT22;6486;51.034;5.262;2022-08-03T08:20:49;28.20;54.40
12839;DHT22;6486;51.034;5.262;2022-08-03T08:23:15;28.40;54.30
12839;DHT22;6486;51.034;5.262;2022-08-03T08:25:47;28.40;54.00
12839;DHT22;6486;51.034;5.262;2022-08-03T08:28:13;28.60;53.90
12839;DHT22;6486;51.034;5.262;2022-08-03T08:30:38;28.70;53.40
12839;DHT22;6486;51.034;5.262;2022-08-03T08:33:04;28.80;52.80
12839;DHT22;6486;51.034;5.262;2022-08-03T08:35:29;28.90;52.80
12839;DHT22;6486;51.034;5.262;2022-08-03T08:37:55;29.00;52.70
12839;DHT22;6486;51.034;5.262;2022-08-03T08:40:21;29.20;52.50
12839;DHT22;6486;51.034;5.262;2022-08-03T08:42:47;29.30;51.90
12839;DHT22;6486;51.034;5.262;2022-08-03T08:45:13;29.40;51.60
12839;DHT22;6486;51.034;5.262;2022-08-03T08:47:44;29.50;51.30
12839;DHT22;6486;51.034;5.262;2022-08-03T08:50:11;29.60;50.90
12839;DHT22;6486;51.034;5.262;2022-08-03T08:52:39;29.70;50.80
12839;DHT22;6486;51.034;5.262;2022-08-03T08:55:08;29.90;50.40
12839;DHT22;6486;51.034;5.262;2022-08-03T08:57:44;30.00;50.30
12839;DHT22;6486;51.034;5.262;2022-08-03T09:00:12;30.10;50.00
12839;DHT22;6486;51.034;5.262;2022-08-03T09:02:39;30.20;49.80
12839;DHT22;6486;51.034;5.262;2022-08-03T09:05:09;30.30;49.60
12839;DHT22;6486;51.034;5.262;2022-08-03T09:07:36;30.40;49.50
12839;DHT22;6486;51.034;5.262;2022-08-03T09:10:03;30.40;49.00
12839;DHT22;6486;51.034;5.262;2022-08-03T09:12:28;30.50;49.00
12839;DHT22;6486;51.034;5.262;2022-08-03T09:14:54;30.60;48.80
12839;DHT22;6486;51.034;5.262;2022-08-03T09:17:20;30.80;48.50
12839;DHT22;6486;51.034;5.262;2022-08-03T09:20:05;30.90;48.00
12839;DHT22;6486;51.034;5.262;2022-08-03T09:22:34;31.00;47.50
12839;DHT22;6486;51.034;5.262;2022-08-03T09:25:05;31.10;48.00
12839;DHT22;6486;51.034;5.262;2022-08-03T09:27:42;31.40;47.00
12839;DHT22;6486;51.034;5.262;2022-08-03T09:30:13;31.30;45.90
12839;DHT22;6486;51.034;5.262;2022-08-03T09:32:40;31.40;45.90
12839;DHT22;6486;51.034;5.262;2022-08-03T09:35:07;31.50;45.90
12839;DHT22;6486;51.034;5.262;2022-08-03T09:37:33;31.60;45.50
12839;DHT22;6486;51.034;5.262;2022-08-03T09:39:58;31.80;45.50
12839;DHT22;6486;51.034;5.262;2022-08-03T09:42:24;31.90;44.80
12839;DHT22;6486;51.034;5.262;2022-08-03T09:44:51;32.10;44.60
12839;DHT22;6486;51.034;5.262;2022-08-03T09:47:28;32.20;44.80
12839;DHT22;6486;51.034;5.262;2022-08-03T09:49:58;32.30;44.30
12839;DHT22;6486;51.034;5.262;2022-08-03T09:52:30;32.40;44.00
12839;DHT22;6486;51.034;5.262;2022-08-03T09:54:56;32.60;44.00
12839;DHT22;6486;51.034;5.262;2022-08-03T09:57:24;32.80;43.40
12839;DHT22;6486;51.034;5.262;2022-08-03T09:59:51;32.90;42.90
12839;DHT22;6486;51.034;5.262;2022-08-03T10:02:25;32.90;42.40
12839;DHT22;6486;51.034;5.262;2022-08-03T10:04:52;33.10;42.40
12839;DHT22;6486;51.034;5.262;2022-08-03T10:07:23;33.10;41.80
12839;DHT22;6486;51.034;5.262;2022-08-03T10:09:58;33.10;41.40
12839;DHT22;6486;51.034;5.262;2022-08-03T10:12:25;33.20;41.10
12839;DHT22;6486;51.034;5.262;2022-08-03T10:14:51;33.30;40.80
12839;DHT22;6486;51.034;5.262;2022-08-03T10:17:18;33.40;40.70
12839;DHT22;6486;51.034;5.262;2022-08-03T10:19:44;33.50;40.50
12839;DHT22;6486;51.034;5.262;2022-08-03T10:22:32;33.60;40.50
12839;DHT22;6486;51.034;5.262;2022-08-03T10:27:26;33.70;39.90
12839;DHT22;6486;51.034;5.262;2022-08-03T10:29:55;33.80;39.80
12839;DHT22;6486;51.034;5.262;2022-08-03T10:32:27;33.90;39.80
12839;DHT22;6486;51.034;5.262;2022-08-03T10:35:03;34.00;39.80
12839;DHT22;6486;51.034;5.262;2022-08-03T10:37:32;34.20;39.70
12839;DHT22;6486;51.034;5.262;2022-08-03T10:39:59;34.30;39.50
12839;DHT22;6486;51.034;5.262;2022-08-03T10:42:27;34.40;40.00
12839;DHT22;6486;51.034;5.262;2022-08-03T10:45:04;34.50;39.20
12839;DHT22;6486;51.034;5.262;2022-08-03T10:47:31;34.60;39.00
12839;DHT22;6486;51.034;5.262;2022-08-03T10:49:57;34.60;38.80
12839;DHT22;6486;51.034;5.262;2022-08-03T10:52:24;34.60;39.00
12839;DHT22;6486;51.034;5.262;2022-08-03T10:54:50;34.70;38.50
12839;DHT22;6486;51.034;5.262;2022-08-03T10:57:51;34.60;38.60
12839;DHT22;6486;51.034;5.262;2022-08-03T11:03:10;34.80;38.30
12839;DHT22;6486;51.034;5.262;2022-08-03T11:05:46;34.90;38.40
12839;DHT22;6486;51.034;5.262;2022-08-03T11:08:32;35.10;38.50
12839;DHT22;6486;51.034;5.262;2022-08-03T11:16:31;35.50;38.00
12839;DHT22;6486;51.034;5.262;2022-08-03T11:19:09;35.50;38.00
12839;DHT22;6486;51.034;5.262;2022-08-03T11:27:19;36.00;37.80
12839;DHT22;6486;51.034;5.262;2022-08-03T11:35:16;36.20;37.10
12839;DHT22;6486;51.034;5.262;2022-08-03T11:40:52;36.40;36.90
12839;DHT22;6486;51.034;5.262;2022-08-03T11:46:12;36.50;36.60
12839;DHT22;6486;51.034;5.262;2022-08-03T11:48:44;36.60;36.40
12839;DHT22;6486;51.034;5.262;2022-08-03T11:51:23;36.70;36.20
12839;DHT22;6486;51.034;5.262;2022-08-03T11:54:03;36.70;36.10
12839;DHT22;6486;51.034;5.262;2022-08-03T11:56:43;36.70;36.20
12839;DHT22;6486;51.034;5.262;2022-08-03T11:59:11;36.80;36.00
12839;DHT22;6486;51.034;5.262;2022-08-03T12:01:36;36.90;35.70
12839;DHT22;6486;51.034;5.262;2022-08-03T12:04:05;37.00;35.80
12839;DHT22;6486;51.034;5.262;2022-08-03T12:06:31;37.00;35.40
12839;DHT22;6486;51.034;5.262;2022-08-03T12:09:19;37.10;35.30
12839;DHT22;6486;51.034;5.262;2022-08-03T12:11:49;37.10;35.10
12839;DHT22;6486;51.034;5.262;2022-08-03T12:14:17;37.00;35.00
12839;DHT22;6486;51.034;5.262;2022-08-03T12:16:46;37.10;35.10
12839;DHT22;6486;51.034;5.262;2022-08-03T12:19:13;37.10;35.10
12839;DHT22;6486;51.034;5.262;2022-08-03T12:21:49;37.30;35.10
12839;DHT22;6486;51.034;5.262;2022-08-03T12:24:15;37.40;34.70
12839;DHT22;6486;51.034;5.262;2022-08-03T12:26:47;37.40;34.70
12839;DHT22;6486;51.034;5.262;2022-08-03T12:29:21;37.30;34.50
12839;DHT22;6486;51.034;5.262;2022-08-03T12:31:47;37.10;34.90
12839;DHT22;6486;51.034;5.262;2022-08-03T12:34:13;36.70;35.10
12839;DHT22;6486;51.034;5.262;2022-08-03T12:36:50;36.70;35.20
12839;DHT22;6486;51.034;5.262;2022-08-03T12:39:16;36.90;34.90
12839;DHT22;6486;51.034;5.262;2022-08-03T12:41:42;37.10;34.90
12839;DHT22;6486;51.034;5.262;2022-08-03T12:44:08;37.20;34.70
12839;DHT22;6486;51.034;5.262;2022-08-03T12:46:39;37.30;34.90
12839;DHT22;6486;51.034;5.262;2022-08-03T12:49:10;37.10;34.70
12839;DHT22;6486;51.034;5.262;2022-08-03T12:51:54;36.50;34.90
12839;DHT22;6486;51.034;5.262;2022-08-03T12:54:26;36.30;35.30
12839;DHT22;6486;51.034;5.262;2022-08-03T12:59:27;35.80;35.60
12839;DHT22;6486;51.034;5.262;2022-08-03T13:01:53;35.80;36.00
12839;DHT22;6486;51.034;5.262;2022-08-03T13:04:33;35.80;36.00
12839;DHT22;6486;51.034;5.262;2022-08-03T13:07:07;36.10;36.00
12839;DHT22;6486;51.034;5.262;2022-08-03T13:10:05;36.40;35.60
12839;DHT22;6486;51.034;5.262;2022-08-03T13:12:31;36.40;35.40
12839;DHT22;6486;51.034;5.262;2022-08-03T13:14:58;36.20;35.80
12839;DHT22;6486;51.034;5.262;2022-08-03T13:17:25;35.90;36.00
12839;DHT22;6486;51.034;5.262;2022-08-03T13:19:51;36.00;36.00
12839;DHT22;6486;51.034;5.262;2022-08-03T13:22:22;35.90;35.80
12839;DHT22;6486;51.034;5.262;2022-08-03T13:24:50;35.70;36.00
12839;DHT22;6486;51.034;5.262;2022-08-03T13:27:17;35.80;36.30
12839;DHT22;6486;51.034;5.262;2022-08-03T13:29:43;35.70;36.10
12839;DHT22;6486;51.034;5.262;2022-08-03T13:32:09;35.50;36.10
12839;DHT22;6486;51.034;5.262;2022-08-03T13:34:36;35.30;36.40
12839;DHT22;6486;51.034;5.262;2022-08-03T13:37:02;35.10;36.70
12839;DHT22;6486;51.034;5.262;2022-08-03T13:39:28;35.00;36.80
12839;DHT22;6486;51.034;5.262;2022-08-03T13:41:53;35.30;36.60
12839;DHT22;6486;51.034;5.262;2022-08-03T13:44:19;35.50;36.50
12839;DHT22;6486;51.034;5.262;2022-08-03T13:46:46;35.90;36.40
12839;DHT22;6486;51.034;5.262;2022-08-03T13:49:12;36.20;36.10
12839;DHT22;6486;51.034;5.262;2022-08-03T13:51:37;36.40;35.90
12839;DHT22;6486;51.034;5.262;2022-08-03T13:54:03;36.70;35.60
12839;DHT22;6486;51.034;5.262;2022-08-03T13:56:29;36.70;35.60
12839;DHT22;6486;51.034;5.262;2022-08-03T13:58:56;36.60;35.60
12839;DHT22;6486;51.034;5.262;2022-08-03T14:01:22;36.80;35.50
12839;DHT22;6486;51.034;5.262;2022-08-03T14:03:47;36.90;35.20
12839;DHT22;6486;51.034;5.262;2022-08-03T14:06:17;37.00;34.90
12839;DHT22;6486;51.034;5.262;2022-08-03T14:08:43;36.80;35.00
12839;DHT22;6486;51.034;5.262;2022-08-03T14:11:09;36.60;35.10
12839;DHT22;6486;51.034;5.262;2022-08-03T14:13:36;36.50;35.10
12839;DHT22;6486;51.034;5.262;2022-08-03T14:16:02;36.30;35.20
12839;DHT22;6486;51.034;5.262;2022-08-03T14:18:27;36.10;35.40
12839;DHT22;6486;51.034;5.262;2022-08-03T14:20:53;35.90;35.60
12839;DHT22;6486;51.034;5.262;2022-08-03T14:23:19;35.80;35.80
12839;DHT22;6486;51.034;5.262;2022-08-03T14:25:45;35.80;35.70
12839;DHT22;6486;51.034;5.262;2022-08-03T14:28:11;35.70;35.90
12839;DHT22;6486;51.034;5.262;2022-08-03T14:30:36;35.50;35.90
12839;DHT22;6486;51.034;5.262;2022-08-03T14:33:02;35.50;36.10
12839;DHT22;6486;51.034;5.262;2022-08-03T14:35:28;35.70;36.00
12839;DHT22;6486;51.034;5.262;2022-08-03T14:37:54;36.00;35.70
12839;DHT22;6486;51.034;5.262;2022-08-03T14:40:20;36.30;35.60
12839;DHT22;6486;51.034;5.262;2022-08-03T14:42:46;36.30;35.30
12839;DHT22;6486;51.034;5.262;2022-08-03T14:45:12;36.60;35.30
12839;DHT22;6486;51.034;5.262;2022-08-03T14:47:38;36.90;35.10
12839;DHT22;6486;51.034;5.262;2022-08-03T14:50:07;37.20;34.40
12839;DHT22;6486;51.034;5.262;2022-08-03T14:52:33;37.40;34.20
12839;DHT22;6486;51.034;5.262;2022-08-03T14:54:59;37.60;33.90
12839;DHT22;6486;51.034;5.262;2022-08-03T14:57:26;37.80;33.60
12839;DHT22;6486;51.034;5.262;2022-08-03T14:59:52;38.00;33.50
12839;DHT22;6486;51.034;5.262;2022-08-03T15:02:18;38.10;33.10
12839;DHT22;6486;51.034;5.262;2022-08-03T15:04:43;38.20;33.00
12839;DHT22;6486;51.034;5.262;2022-08-03T15:07:09;38.30;32.70
12839;DHT22;6486;51.034;5.262;2022-08-03T15:09:35;38.20;32.50
12839;DHT22;6486;51.034;5.262;2022-08-03T15:12:02;37.90;32.80
12839;DHT22;6486;51.034;5.262;2022-08-03T15:14:28;37.60;33.00
12839;DHT22;6486;51.034;5.262;2022-08-03T15:16:54;37.60;33.00
12839;DHT22;6486;51.034;5.262;2022-08-03T15:19:19;37.30;33.00
12839;DHT22;6486;51.034;5.262;2022-08-03T15:21:45;36.90;32.90
12839;DHT22;6486;51.034;5.262;2022-08-03T15:24:11;36.70;33.00
12839;DHT22;6486;51.034;5.262;2022-08-03T15:26:36;36.70;33.00
12839;DHT22;6486;51.034;5.262;2022-08-03T15:29:02;36.70;33.10
12839;DHT22;6486;51.034;5.262;2022-08-03T15:31:28;36.90;33.20
12839;DHT22;6486;51.034;5.262;2022-08-03T15:33:53;37.00;33.10
12839;DHT22;6486;51.034;5.262;2022-08-03T15:36:19;37.30;33.00
12839;DHT22;6486;51.034;5.262;2022-08-03T15:38:45;37.50;33.10
12839;DHT22;6486;51.034;5.262;2022-08-03T15:41:12;37.70;33.20
12839;DHT22;6486;51.034;5.262;2022-08-03T15:43:38;37.80;32.90
12839;DHT22;6486;51.034;5.262;2022-08-03T15:46:03;38.10;32.90
12839;DHT22;6486;51.034;5.262;2022-08-03T15:48:29;38.30;32.90
12839;DHT22;6486;51.034;5.262;2022-08-03T15:50:55;38.50;32.90
12839;DHT22;6486;51.034;5.262;2022-08-03T15:53:20;38.70;32.70
12839;DHT22;6486;51.034;5.262;2022-08-03T15:55:46;39.00;32.50
12839;DHT22;6486;51.034;5.262;2022-08-03T15:58:12;39.20;32.20
12839;DHT22;6486;51.034;5.262;2022-08-03T16:00:38;39.40;31.90
12839;DHT22;6486;51.034;5.262;2022-08-03T16:03:04;39.60;31.50
12839;DHT22;6486;51.034;5.262;2022-08-03T16:05:30;39.80;31.40
12839;DHT22;6486;51.034;5.262;2022-08-03T16:07:56;40.10;31.30
12839;DHT22;6486;51.034;5.262;2022-08-03T16:10:22;40.20;30.90
12839;DHT22;6486;51.034;5.262;2022-08-03T16:12:47;40.40;30.60
12839;DHT22;6486;51.034;5.262;2022-08-03T16:15:13;40.10;30.10
12839;DHT22;6486;51.034;5.262;2022-08-03T16:17:40;40.10;30.30
12839;DHT22;6486;51.034;5.262;2022-08-03T16:20:08;40.20;30.20
12839;DHT22;6486;51.034;5.262;2022-08-03T16:22:43;40.40;30.00
12839;DHT22;6486;51.034;5.262;2022-08-03T16:25:10;40.70;29.80
12839;DHT22;6486;51.034;5.262;2022-08-03T16:27:36;41.00;29.60
12839;DHT22;6486;51.034;5.262;2022-08-03T16:30:03;41.40;29.20
12839;DHT22;6486;51.034;5.262;2022-08-03T16:32:29;41.80;28.90
12839;DHT22;6486;51.034;5.262;2022-08-03T16:34:54;42.20;28.60
12839;DHT22;6486;51.034;5.262;2022-08-03T16:37:20;42.70;28.10